createdAt,value
2023-04-18T00:00:15.759Z,82.30
2023-04-18T00:03:32.042Z,81.17
2023-04-18T00:06:34.560Z,82.02
2023-04-18T00:09:50.535Z,82.61
2023-04-18T00:12:58.560Z,83.46
2023-04-18T00:16:06.769Z,83.07
2023-04-18T00:19:16.436Z,82.35
2023-04-18T00:22:32.092Z,83.81
2023-04-18T00:25:54.757Z,83.55
2023-04-18T00:29:04.514Z,82.58
2023-04-18T00:32:12.793Z,84.27
2023-04-18T00:35:27.805Z,84.07
2023-04-18T00:38:36.790Z,83.75
2023-04-18T00:41:52.786Z,83.17
2023-04-18T00:44:54.620Z,83.23
2023-04-18T00:48:10.052Z,83.06
2023-04-18T00:51:18.794Z,83.60
2023-04-18T00:54:27.894Z,82.86
2023-04-18T00:57:42.816Z,83.25
2023-04-18T01:00:50.791Z,83.11
2023-04-18T01:04:05.971Z,83.94
2023-04-18T01:07:11.502Z,84.61
2023-04-18T01:10:27.011Z,84.62
2023-04-18T01:13:28.620Z,83.72
2023-04-18T01:16:44.131Z,82.91
2023-04-18T01:19:46.574Z,83.98
2023-04-18T01:23:03.844Z,82.47
2023-04-18T01:26:12.453Z,83.45
2023-04-18T01:29:26.775Z,83.60
2023-04-18T01:32:29.598Z,82.84
2023-04-18T01:35:44.124Z,83.93
2023-04-18T01:38:46.460Z,83.16
2023-04-18T01:42:01.829Z,83.47
2023-04-18T01:48:35.111Z,82.27
2023-04-18T01:51:49.782Z,82.63
2023-04-18T01:54:57.819Z,82.47
2023-04-18T01:58:06.442Z,82.92
2023-04-18T02:01:20.956Z,82.90
2023-04-18T02:04:35.827Z,81.71
2023-04-18T02:07:37.526Z,81.72
2023-04-18T02:10:51.883Z,80.87
2023-04-18T02:13:59.830Z,81.56
2023-04-18T02:17:08.283Z,81.78
2023-04-18T02:20:16.824Z,81.48
2023-04-18T02:23:25.596Z,80.66
2023-04-18T02:26:39.831Z,81.57
2023-04-18T02:29:48.375Z,82.12
2023-04-18T02:33:00.218Z,82.31
2023-04-18T02:36:15.811Z,81.74
2023-04-18T02:39:17.768Z,80.83
2023-04-18T02:42:32.937Z,81.64
2023-04-18T02:45:34.718Z,81.19
2023-04-18T02:48:50.546Z,81.57
2023-04-18T02:51:55.046Z,82.42
2023-04-18T02:55:09.882Z,83.06
2023-04-18T02:58:24.905Z,83.96
2023-04-18T03:01:36.997Z,85.76
2023-04-18T03:05:09.030Z,83.97
2023-04-18T03:08:17.357Z,83.60
2023-04-18T03:11:25.958Z,83.92
2023-04-18T03:14:40.954Z,83.68
2023-04-18T03:17:42.853Z,84.37
2023-04-18T03:20:57.906Z,83.76
2023-04-18T03:24:17.875Z,85.10
2023-04-18T03:27:32.844Z,84.86
2023-04-18T03:30:41.457Z,84.53
2023-04-18T03:33:52.137Z,84.76
2023-04-18T03:37:00.348Z,84.83
2023-04-18T03:40:09.074Z,82.81
2023-04-18T03:43:20.040Z,83.51
2023-04-18T03:46:28.940Z,84.74
2023-04-18T03:49:43.892Z,84.86
2023-04-18T03:52:45.681Z,84.75
2023-04-18T03:55:59.913Z,85.75
2023-04-18T03:59:14.870Z,85.36
2023-04-18T04:02:23.736Z,85.32
2023-04-18T04:05:38.921Z,84.93
2023-04-18T04:08:40.807Z,84.38
2023-04-18T04:11:56.879Z,84.34
2023-04-18T04:15:04.915Z,84.40
2023-04-18T04:18:13.519Z,83.94
2023-04-18T04:21:21.912Z,85.50
2023-04-18T04:24:43.931Z,84.74
2023-04-18T04:27:52.567Z,84.46
2023-04-18T04:31:01.133Z,85.11
2023-04-18T04:34:09.956Z,85.18
2023-04-18T04:37:25.192Z,85.97
2023-04-18T04:40:39.895Z,86.43
2023-04-18T04:43:57.168Z,86.90
2023-04-18T04:47:12.130Z,86.15
2023-04-18T04:50:14.980Z,86.39
2023-04-18T04:53:31.926Z,85.97
2023-04-18T04:56:33.871Z,87.18
2023-04-18T04:59:49.255Z,87.54
2023-04-18T05:02:59.007Z,88.16
2023-04-18T05:06:07.582Z,89.30
2023-04-18T05:09:15.927Z,89.48
2023-04-18T05:12:34.890Z,89.43
2023-04-18T05:15:36.647Z,89.79
2023-04-18T05:18:50.938Z,89.47
2023-04-18T05:21:53.306Z,89.16
2023-04-18T05:25:08.979Z,88.47
2023-04-18T05:28:17.205Z,86.75
2023-04-18T05:31:32.088Z,87.32
2023-04-18T05:34:41.006Z,86.11
2023-04-18T05:37:49.499Z,85.62
2023-04-18T05:41:04.808Z,85.01
2023-04-18T05:44:13.924Z,83.63
2023-04-18T05:47:22.762Z,83.58
2023-04-18T05:50:30.929Z,83.13
2023-04-18T05:53:45.988Z,82.92
2023-04-18T05:56:47.754Z,81.23
2023-04-18T06:00:02.542Z,81.82
2023-04-18T06:03:17.492Z,81.12
2023-04-18T06:06:33.176Z,80.39
2023-04-18T06:09:43.247Z,79.92
2023-04-18T06:12:57.995Z,80.05
2023-04-18T06:16:01.717Z,77.32
2023-04-18T06:19:17.073Z,78.38
2023-04-18T06:22:19.045Z,78.76
2023-04-18T06:25:34.276Z,76.81
2023-04-18T06:28:36.861Z,75.93
2023-04-18T06:32:01.145Z,76.51
2023-04-18T06:35:10.050Z,77.55
2023-04-18T06:38:36.662Z,76.19
2023-04-18T06:41:47.025Z,74.81
2023-04-18T06:44:57.175Z,74.05
2023-04-18T06:48:10.343Z,73.27
2023-04-18T06:51:19.765Z,71.14
2023-04-18T06:54:28.133Z,71.22
2023-04-18T06:57:56.877Z,70.13
2023-04-18T07:04:48.440Z,69.88
2023-04-18T07:11:20.020Z,70.15
2023-04-18T07:14:35.220Z,69.57
2023-04-18T07:21:29.774Z,68.58
2023-04-18T07:24:38.011Z,68.19
2023-04-18T07:28:00.029Z,67.96
2023-04-18T07:31:15.316Z,67.17
2023-04-18T07:34:19.690Z,64.71
2023-04-18T07:37:34.008Z,64.39
2023-04-18T07:40:51.982Z,66.22
2023-04-18T07:43:55.930Z,65.23
2023-04-18T07:47:14.767Z,65.71
2023-04-18T07:50:16.501Z,64.14
2023-04-18T07:53:32.146Z,65.94
2023-04-18T07:56:34.333Z,65.68
2023-04-18T07:59:49.002Z,63.48
2023-04-18T08:02:51.746Z,61.61
2023-04-18T08:06:08.085Z,62.27
2023-04-18T08:09:09.722Z,61.02
2023-04-18T08:12:25.498Z,61.23
2023-04-18T08:15:47.932Z,60.48
2023-04-18T08:18:49.757Z,60.72
2023-04-18T08:22:15.078Z,59.99
2023-04-18T08:25:33.850Z,58.93
2023-04-18T08:28:43.743Z,59.58
2023-04-18T08:31:54.354Z,60.99
2023-04-18T08:35:03.044Z,61.58
2023-04-18T08:38:18.357Z,61.67
2023-04-18T08:41:28.237Z,61.01
2023-04-18T08:44:38.383Z,59.73
2023-04-18T08:47:53.444Z,59.82
2023-04-18T08:51:05.184Z,58.50
2023-04-18T08:54:22.049Z,58.62
2023-04-18T08:57:24.318Z,58.17
2023-04-18T09:00:40.513Z,57.96
2023-04-18T09:03:42.998Z,58.28
2023-04-18T09:10:39.757Z,48.27
2023-04-18T09:21:05.346Z,47.21
2023-04-18T09:24:23.257Z,47.19
2023-04-18T09:27:55.175Z,45.79
2023-04-18T09:30:59.284Z,46.42
2023-04-18T09:34:28.023Z,44.53
2023-04-18T09:37:57.765Z,44.10
2023-04-18T09:41:15.975Z,44.68
2023-04-18T09:44:19.596Z,45.07
2023-04-18T09:47:40.405Z,47.01
2023-04-18T09:50:56.948Z,46.88
2023-04-18T09:54:12.817Z,46.27
2023-04-18T09:57:22.186Z,46.62
2023-04-18T10:00:33.392Z,46.87
2023-04-18T10:07:55.454Z,48.24
2023-04-18T10:18:45.678Z,48.82
2023-04-18T10:22:09.346Z,47.91
2023-04-18T10:25:12.278Z,45.32
2023-04-18T10:31:46.227Z,43.24
2023-04-18T10:35:04.883Z,45.73
2023-04-18T10:38:26.121Z,45.78
2023-04-18T10:41:50.587Z,43.99
2023-04-18T10:49:24.557Z,42.04
2023-04-18T10:52:39.750Z,41.89
2023-04-18T10:56:19.652Z,41.23
2023-04-18T10:59:45.772Z,42.09
2023-04-18T11:06:56.721Z,40.26
2023-04-18T11:10:28.615Z,39.21
2023-04-18T11:24:49.445Z,32.17
2023-04-18T11:31:38.304Z,36.47
2023-04-18T11:35:02.984Z,37.94
2023-04-18T11:38:14.952Z,39.31
2023-04-18T11:41:23.693Z,38.55
2023-04-18T11:44:41.766Z,37.29
2023-04-18T11:47:53.039Z,38.81
2023-04-18T11:58:10.863Z,41.37
2023-04-18T12:01:33.038Z,43.15
2023-04-18T12:05:01.073Z,43.12
2023-04-18T12:08:30.902Z,43.35
2023-04-18T12:11:53.373Z,44.48
2023-04-18T12:18:42.042Z,41.81
2023-04-18T12:25:43.889Z,39.61
2023-04-18T12:28:52.946Z,40.20
2023-04-18T12:35:41.463Z,39.17
2023-04-18T12:42:21.130Z,40.25
2023-04-18T12:45:31.863Z,38.96
2023-04-18T12:49:05.849Z,39.76
2023-04-18T12:55:46.787Z,40.52
2023-04-18T13:06:21.176Z,35.30
2023-04-18T13:09:56.050Z,35.22
2023-04-18T13:20:00.846Z,34.62
2023-04-18T13:23:33.702Z,34.09
2023-04-18T13:26:52.052Z,32.81
2023-04-18T13:30:19.318Z,33.33
2023-04-18T13:33:45.945Z,32.42
2023-04-18T13:37:06.073Z,32.57
2023-04-18T13:40:11.342Z,32.71
2023-04-18T13:43:27.257Z,32.62
2023-04-18T13:46:56.131Z,32.22
2023-04-18T13:50:06.289Z,32.66
2023-04-18T13:53:15.055Z,32.63
2023-04-18T13:56:33.085Z,32.32
2023-04-18T13:59:54.126Z,31.14
2023-04-18T14:06:52.885Z,30.16
2023-04-18T14:10:19.244Z,29.61
2023-04-18T14:13:45.578Z,29.92
2023-04-18T14:17:11.718Z,30.46
2023-04-18T14:20:31.011Z,28.79
2023-04-18T14:23:38.273Z,28.01
2023-04-18T14:27:05.586Z,28.37
2023-04-18T14:30:20.349Z,29.21
2023-04-18T14:33:39.091Z,28.54
2023-04-18T14:40:34.463Z,28.02
2023-04-18T14:43:51.433Z,28.20
2023-04-18T14:51:09.134Z,29.05
2023-04-18T15:01:27.027Z,29.34
2023-04-18T15:04:41.879Z,29.55
2023-04-18T15:19:05.037Z,30.08
2023-04-18T15:25:52.761Z,29.57
2023-04-18T15:29:09.886Z,30.19
2023-04-18T15:32:18.828Z,30.42
2023-04-18T15:35:38.908Z,30.70
2023-04-18T15:38:47.362Z,31.25
2023-04-18T15:42:07.107Z,32.25
2023-04-18T15:52:08.157Z,33.45
2023-04-18T15:55:24.937Z,34.04
2023-04-18T16:09:16.048Z,34.13
2023-04-18T16:27:28.196Z,34.23
2023-04-18T16:30:37.803Z,35.37
2023-04-18T16:33:53.543Z,34.72
2023-04-18T16:37:01.994Z,35.17
2023-04-18T16:40:13.562Z,34.46
2023-04-18T16:43:24.686Z,34.85
2023-04-18T16:46:39.175Z,34.68
2023-04-18T16:49:47.521Z,34.44
2023-04-18T16:53:02.540Z,34.52
2023-04-18T16:56:05.799Z,34.55
2023-04-18T16:59:21.242Z,34.35
2023-04-18T17:02:29.858Z,34.94
2023-04-18T17:05:44.739Z,34.93
2023-04-18T17:09:00.569Z,34.72
2023-04-18T17:12:03.228Z,35.13
2023-04-18T17:15:17.605Z,34.88
2023-04-18T17:18:32.570Z,34.75
2023-04-18T17:21:37.560Z,35.50
2023-04-18T17:25:02.154Z,35.17
2023-04-18T17:28:05.777Z,35.24
2023-04-18T17:31:21.877Z,35.50
2023-04-18T17:34:30.822Z,35.89
2023-04-18T17:37:46.449Z,35.99
2023-04-18T17:41:01.638Z,36.24
2023-04-18T17:44:12.843Z,36.09
2023-04-18T17:47:29.220Z,36.06
2023-04-18T17:50:37.539Z,36.71
2023-04-18T17:54:08.341Z,37.14
2023-04-18T17:57:25.885Z,36.85
2023-04-18T18:04:13.654Z,37.81
2023-04-18T18:07:16.172Z,37.47
2023-04-18T18:10:32.603Z,37.47
2023-04-18T18:13:42.739Z,37.98
2023-04-18T18:17:00.598Z,38.58
2023-04-18T18:20:19.759Z,38.70
2023-04-18T18:23:48.172Z,38.31
2023-04-18T18:27:03.440Z,38.85
2023-04-18T18:30:07.118Z,38.90
2023-04-18T18:33:21.614Z,39.17
2023-04-18T18:36:37.439Z,39.75
2023-04-18T18:39:52.645Z,39.35
2023-04-18T18:42:54.370Z,39.50
2023-04-18T18:46:10.130Z,40.05
2023-04-18T18:49:18.581Z,39.65
2023-04-18T18:52:34.023Z,39.60
2023-04-18T18:55:47.027Z,39.81
2023-04-18T18:59:01.591Z,40.52
2023-04-18T19:02:04.103Z,40.47
2023-04-18T19:05:19.305Z,40.31
2023-04-18T19:08:27.184Z,41.19
2023-04-18T19:11:56.922Z,40.61
2023-04-18T19:15:06.363Z,40.77
2023-04-18T19:18:20.877Z,41.29
2023-04-18T19:21:29.513Z,40.73
2023-04-18T19:24:53.935Z,40.55
2023-04-18T19:28:02.610Z,39.42
2023-04-18T19:31:18.456Z,40.21
2023-04-18T19:34:27.580Z,40.82
2023-04-18T19:37:55.196Z,40.67
2023-04-18T19:41:06.541Z,40.92
2023-04-18T19:44:27.208Z,40.97
2023-04-18T19:47:44.836Z,40.90
2023-04-18T19:50:59.728Z,41.60
2023-04-18T19:54:08.405Z,41.37
2023-04-18T19:57:18.398Z,41.10
2023-04-18T20:00:29.046Z,41.41
2023-04-18T20:03:55.251Z,41.11
2023-04-18T20:10:36.475Z,41.34
2023-04-18T20:13:52.306Z,41.30
2023-04-18T20:16:54.405Z,41.21
2023-04-18T20:20:10.924Z,41.08
2023-04-18T20:23:18.965Z,41.29
2023-04-18T20:26:34.637Z,40.75
2023-04-18T20:29:43.665Z,40.64
2023-04-18T20:33:00.940Z,41.20
2023-04-18T20:39:42.868Z,41.48
2023-04-18T20:42:52.774Z,41.49
2023-04-18T20:46:04.264Z,41.12
2023-04-18T20:49:17.882Z,41.12
2023-04-18T20:55:56.935Z,41.22
2023-04-18T20:59:08.878Z,41.14
2023-04-18T21:02:17.364Z,41.50
2023-04-18T21:05:26.810Z,41.37
2023-04-18T21:19:07.237Z,42.92
2023-04-18T21:22:13.029Z,41.95
2023-04-18T21:25:34.700Z,42.35
2023-04-18T21:29:01.957Z,43.08
2023-04-18T21:32:11.354Z,43.19
2023-04-18T21:35:21.922Z,43.54
2023-04-18T21:39:07.890Z,43.86
2023-04-18T21:42:16.888Z,43.89
2023-04-18T21:45:25.629Z,44.03
2023-04-18T21:48:37.067Z,44.46
2023-04-18T21:51:45.448Z,44.38
2023-04-18T21:54:54.378Z,44.71
2023-04-18T21:58:15.339Z,45.28
2023-04-18T22:01:25.012Z,45.55
2023-04-18T22:04:33.438Z,44.92
2023-04-18T22:07:57.504Z,45.75
2023-04-18T22:11:06.727Z,44.94
2023-04-18T22:14:15.564Z,45.04
2023-04-18T22:17:31.828Z,45.35
2023-04-18T22:20:42.360Z,45.50
2023-04-18T22:24:18.957Z,45.01
2023-04-18T22:27:34.883Z,45.65
2023-04-18T22:30:49.795Z,45.68
2023-04-18T22:33:59.748Z,45.86
2023-04-18T22:37:08.291Z,45.68
2023-04-18T22:40:17.929Z,46.07
2023-04-18T22:43:29.367Z,45.97
2023-04-18T22:46:37.777Z,45.78
2023-04-18T22:49:52.835Z,46.16
2023-04-18T22:52:54.812Z,46.45
2023-04-18T22:56:10.730Z,46.17
2023-04-18T22:59:13.201Z,46.65
2023-04-18T23:02:27.857Z,46.33
2023-04-18T23:05:30.088Z,46.95
2023-04-18T23:08:56.889Z,46.29
2023-04-18T23:11:59.441Z,46.00
2023-04-18T23:15:15.622Z,46.18
2023-04-18T23:18:18.439Z,46.23
2023-04-18T23:21:54.255Z,45.94
2023-04-18T23:25:02.025Z,45.64
2023-04-18T23:28:16.778Z,45.27
2023-04-18T23:31:32.863Z,44.80
2023-04-18T23:34:49.583Z,44.83
2023-04-18T23:38:07.863Z,44.70
2023-04-18T23:41:10.091Z,44.87
2023-04-18T23:44:26.789Z,44.37
2023-04-18T23:47:31.414Z,44.84
2023-04-18T23:50:55.599Z,44.97
2023-04-18T23:54:03.955Z,44.95
2023-04-18T23:57:16.072Z,44.23
